Time;durP1;ratioP1;P1;durP2;ratioP2;P2;SDS_P1;SDS_P2;PMS_P1;PMS_P2;Temp;Humidity;BMP_temperature;BMP_pressure;BME280_temperature;BME280_humidity;BME280_pressure;Samples;Min_cycle;Max_cycle;Signal;HPM_P1;HPM_P2
2022/10/14 00:02:13;;;;;;;11.63;10.47;;;12.10;99.90;;;;;;5131835;27;20193;-70
2022/10/14 00:04:40;;;;;;;12.33;11.13;;;12.10;99.90;;;;;;5131981;27;20206;-70
2022/10/14 00:07:06;;;;;;;12.63;10.63;;;12.10;99.90;;;;;;5131754;27;20221;-70
2022/10/14 00:09:33;;;;;;;13.17;11.30;;;12.10;99.90;;;;;;5131626;27;20201;-70
2022/10/14 00:12:01;;;;;;;12.83;10.27;;;12.00;99.90;;;;;;5131220;27;20585;-71
2022/10/14 00:14:28;;;;;;;11.13;10.00;;;12.10;99.90;;;;;;5114478;27;20209;-70
2022/10/14 00:16:55;;;;;;;12.03;10.50;;;12.10;99.90;;;;;;5110921;28;20202;-71
2022/10/14 00:19:22;;;;;;;11.37;10.27;;;12.10;99.90;;;;;;5111180;28;20255;-70
2022/10/14 00:21:49;;;;;;;14.40;10.67;;;12.00;99.90;;;;;;5118051;27;20590;-70
2022/10/14 00:24:17;;;;;;;14.03;10.30;;;12.00;99.90;;;;;;5131437;27;20209;-70
2022/10/14 00:26:45;;;;;;;10.77;9.77;;;12.00;99.90;;;;;;5131129;27;20589;-70
2022/10/14 00:29:16;;;;;;;13.10;10.33;;;12.00;99.90;;;;;;5131268;27;20212;-70
2022/10/14 00:31:43;;;;;;;11.63;10.47;;;12.00;99.90;;;;;;5131247;27;20228;-72
2022/10/14 00:34:11;;;;;;;11.77;10.33;;;12.00;99.90;;;;;;5125884;27;20206;-72
2022/10/14 00:36:38;;;;;;;11.47;10.27;;;12.00;99.90;;;;;;5131118;27;20675;-72
2022/10/14 00:39:06;;;;;;;11.77;10.50;;;12.00;99.90;;;;;;5131167;27;20209;-72
2022/10/14 00:41:34;;;;;;;12.03;10.53;;;12.00;99.90;;;;;;5130951;27;20246;-72
2022/10/14 00:44:04;;;;;;;12.87;10.03;;;12.00;99.90;;;;;;5131084;27;20212;-72
2022/10/14 00:46:34;;;;;;;13.20;10.70;;;12.00;99.90;;;;;;5131052;27;20206;-72
2022/10/14 00:49:05;;;;;;;11.43;9.63;;;11.90;99.90;;;;;;5123295;27;20194;-72
2022/10/14 00:51:34;;;;;;;10.83;9.40;;;11.90;99.90;;;;;;5111844;27;20202;-72
2022/10/14 00:54:01;;;;;;;11.77;9.80;;;11.90;99.90;;;;;;5131031;27;20209;-72
2022/10/14 00:56:29;;;;;;;15.80;9.70;;;11.80;99.90;;;;;;5130605;27;20670;-70
2022/10/14 00:58:57;;;;;;;10.97;9.63;;;11.80;99.90;;;;;;5129768;27;20213;-70
2022/10/14 01:01:24;;;;;;;11.33;9.23;;;11.80;99.90;;;;;;5130359;27;20272;-70
2022/10/14 01:03:52;;;;;;;12.93;9.97;;;11.80;99.90;;;;;;5130970;27;20221;-70
2022/10/14 01:06:34;;;;;;;12.40;9.70;;;11.80;99.90;;;;;;5130855;27;20205;-70
2022/10/14 01:09:05;;;;;;;14.77;9.80;;;11.80;99.90;;;;;;5130805;27;20189;-71
2022/10/14 01:11:39;;;;;;;11.23;9.60;;;11.70;99.90;;;;;;5130566;27;20190;-73
2022/10/14 01:14:17;;;;;;;14.33;10.57;;;11.70;99.90;;;;;;5124809;27;20588;-73
2022/10/14 01:16:52;;;;;;;11.87;10.17;;;11.80;99.90;;;;;;5111788;27;20202;-73
2022/10/14 01:19:46;;;;;;;12.73;10.13;;;11.70;99.90;;;;;;5130670;27;20571;-73
2022/10/14 01:22:21;;;;;;;12.73;9.80;;;11.70;99.90;;;;;;5130593;27;20213;-73
2022/10/14 01:25:01;;;;;;;10.97;9.77;;;11.60;99.90;;;;;;5130755;27;20204;-73
2022/10/14 01:27:57;;;;;;;10.53;9.20;;;11.70;99.90;;;;;;5130251;27;20213;-73
2022/10/14 01:30:29;;;;;;;9.83;8.83;;;11.70;99.90;;;;;;5130403;27;20579;-73
2022/10/14 01:33:07;;;;;;;11.67;9.43;;;11.70;99.90;;;;;;5130386;27;20687;-73
2022/10/14 01:35:45;;;;;;;11.03;9.70;;;11.60;99.90;;;;;;5125774;27;20678;-73
2022/10/14 01:38:17;;;;;;;9.83;8.93;;;11.60;99.90;;;;;;5130403;27;20549;-73
2022/10/14 01:40:50;;;;;;;12.57;9.47;;;11.60;99.90;;;;;;5129829;27;20254;-73
2022/10/14 01:43:19;;;;;;;15.10;9.10;;;11.50;99.90;;;;;;5130076;27;20201;-73
2022/10/14 01:45:49;;;;;;;9.90;8.97;;;11.50;99.90;;;;;;5130104;27;20700;-73
2022/10/14 01:48:18;;;;;;;10.33;8.37;;;11.40;99.90;;;;;;5128382;27;20233;-73
2022/10/14 01:50:48;;;;;;;9.43;8.27;;;11.30;99.90;;;;;;5109435;28;20672;-73
2022/10/14 01:53:18;;;;;;;9.97;8.90;;;11.30;99.90;;;;;;5128439;27;20213;-74
2022/10/14 01:55:47;;;;;;;9.70;8.50;;;11.20;99.90;;;;;;5129783;27;20193;-73
2022/10/14 01:58:17;;;;;;;9.90;9.00;;;11.20;99.90;;;;;;5129749;27;20217;-72
2022/10/14 02:00:46;;;;;;;9.63;8.73;;;11.20;99.90;;;;;;5129391;27;20723;-72
2022/10/14 02:03:14;;;;;;;10.43;9.43;;;11.20;99.90;;;;;;5129558;27;20213;-72
2022/10/14 02:05:48;;;;;;;11.17;9.33;;;11.10;99.90;;;;;;5129212;27;20197;-72
2022/10/14 02:08:26;;;;;;;9.90;8.90;;;11.10;99.90;;;;;;5128748;27;20706;-72
2022/10/14 02:11:07;;;;;;;9.60;8.67;;;11.10;99.90;;;;;;5122665;27;20287;-72
2022/10/14 02:14:00;;;;;;;11.17;9.97;;;11.20;99.90;;;;;;5126710;27;20205;-72
2022/10/14 02:16:33;;;;;;;11.13;9.50;;;11.20;99.90;;;;;;5129240;27;20197;-69
2022/10/14 02:19:08;;;;;;;10.00;9.00;;;11.20;99.90;;;;;;5129149;27;20202;-70
2022/10/14 02:21:39;;;;;;;9.83;8.87;;;11.20;99.90;;;;;;5129337;27;20197;-70
2022/10/14 02:24:10;;;;;;;10.80;9.80;;;11.20;99.90;;;;;;5120008;27;20228;-70
2022/10/14 02:26:39;;;;;;;14.80;9.63;;;11.20;99.90;;;;;;5127713;27;21002;-70
2022/10/14 02:29:06;;;;;;;13.13;10.07;;;11.30;99.90;;;;;;5127470;27;20225;-70
2022/10/14 02:31:35;;;;;;;14.63;10.53;;;11.30;99.90;;;;;;5127213;27;20228;-70
2022/10/14 02:34:10;;;;;;;11.57;10.40;;;11.30;99.90;;;;;;5125888;27;20276;-70
2022/10/14 02:36:38;;;;;;;12.23;10.13;;;11.40;99.90;;;;;;5106363;28;20205;-70
2022/10/14 02:39:09;;;;;;;12.57;10.53;;;11.40;99.90;;;;;;5121249;27;20205;-70
2022/10/14 02:41:37;;;;;;;12.33;10.23;;;11.40;99.90;;;;;;5126736;27;20189;-69
2022/10/14 02:44:05;;;;;;;13.17;11.17;;;11.40;99.90;;;;;;5126849;27;20208;-69
2022/10/14 02:46:33;;;;;;;14.57;11.43;;;11.40;99.90;;;;;;5126582;27;21063;-69
2022/10/14 02:49:00;;;;;;;11.93;10.63;;;11.40;99.90;;;;;;5118496;27;20225;-70
2022/10/14 02:51:28;;;;;;;11.37;10.17;;;11.40;99.90;;;;;;5117965;27;20222;-70
2022/10/14 02:53:56;;;;;;;13.13;11.37;;;11.40;99.90;;;;;;5126273;27;20208;-70
2022/10/14 02:56:23;;;;;;;12.30;11.00;;;11.50;99.90;;;;;;5126169;27;20201;-70
2022/10/14 02:58:50;;;;;;;16.00;11.40;;;11.50;99.90;;;;;;5126330;27;20248;-70
2022/10/14 03:01:17;;;;;;;13.37;11.93;;;11.50;99.90;;;;;;5125478;27;20942;-70
2022/10/14 03:03:46;;;;;;;15.70;12.30;;;11.50;99.90;;;;;;5125998;27;20210;-70
2022/10/14 03:06:13;;;;;;;16.00;13.07;;;11.50;99.90;;;;;;5115600;27;20229;-70
2022/10/14 03:08:41;;;;;;;17.13;12.23;;;11.50;99.90;;;;;;5108023;28;20226;-70
2022/10/14 03:11:08;;;;;;;12.90;11.27;;;11.50;99.90;;;;;;5109398;28;20209;-70
2022/10/14 03:13:34;;;;;;;12.93;11.50;;;11.50;99.90;;;;;;5107933;28;20206;-70
2022/10/14 03:16:01;;;;;;;12.97;11.10;;;11.50;99.90;;;;;;5108048;28;20585;-70
2022/10/14 03:18:28;;;;;;;13.60;12.00;;;11.50;99.90;;;;;;5107645;28;20201;-70
2022/10/14 03:20:55;;;;;;;12.67;11.20;;;11.50;99.90;;;;;;5124575;27;20198;-70
2022/10/14 03:23:21;;;;;;;16.93;10.73;;;11.50;99.90;;;;;;5128443;27;20205;-70
2022/10/14 03:25:49;;;;;;;12.60;10.67;;;11.50;99.90;;;;;;5128234;27;20198;-70
2022/10/14 03:28:16;;;;;;;11.73;10.53;;;11.40;99.90;;;;;;5128426;27;20235;-70
2022/10/14 03:30:43;;;;;;;12.13;10.73;;;11.30;99.90;;;;;;5128545;27;20228;-70
2022/10/14 03:33:10;;;;;;;16.93;10.80;;;11.30;99.90;;;;;;5128429;27;20339;-70
2022/10/14 03:35:36;;;;;;;12.03;10.53;;;11.20;99.90;;;;;;5128156;27;20852;-70
2022/10/14 03:38:05;;;;;;;12.27;10.77;;;11.20;99.90;;;;;;5128219;27;20209;-70
2022/10/14 03:40:32;;;;;;;13.23;10.50;;;11.20;99.90;;;;;;5128168;27;21024;-70
2022/10/14 03:43:01;;;;;;;15.17;10.60;;;11.10;99.90;;;;;;5128491;27;20197;-70
2022/10/14 03:45:28;;;;;;;12.70;9.97;;;11.10;99.90;;;;;;5128251;27;20205;-70
2022/10/14 03:47:55;;;;;;;12.47;11.17;;;11.00;99.90;;;;;;5127898;27;20259;-70
2022/10/14 03:50:21;;;;;;;11.07;9.93;;;11.10;99.90;;;;;;5108698;27;20202;-70
2022/10/14 03:52:48;;;;;;;13.10;11.03;;;10.90;99.90;;;;;;5123161;28;20209;-70
2022/10/14 03:55:15;;;;;;;11.67;10.43;;;10.90;99.90;;;;;;5127804;27;20205;-70
2022/10/14 03:57:42;;;;;;;12.57;10.47;;;11.00;99.90;;;;;;5127904;27;20580;-70
2022/10/14 04:00:12;;;;;;;11.47;10.27;;;11.00;99.90;;;;;;5126278;27;20677;-71
2022/10/14 04:02:39;;;;;;;12.27;10.27;;;11.00;99.90;;;;;;5119437;28;20659;-71
2022/10/14 04:05:06;;;;;;;12.87;11.00;;;11.00;99.90;;;;;;5128099;27;20295;-70
2022/10/14 04:07:33;;;;;;;15.07;11.50;;;11.00;99.90;;;;;;5127908;28;20274;-70
2022/10/14 04:10:00;;;;;;;12.97;10.53;;;11.10;99.90;;;;;;5127664;27;20206;-70
2022/10/14 04:12:27;;;;;;;12.07;10.87;;;11.10;99.90;;;;;;5127796;27;20228;-70
2022/10/14 04:14:55;;;;;;;11.53;10.07;;;11.20;99.90;;;;;;5128234;27;20202;-70
2022/10/14 04:17:23;;;;;;;13.60;10.50;;;11.20;99.90;;;;;;5127996;27;20201;-70
2022/10/14 04:19:51;;;;;;;11.63;10.00;;;11.20;99.90;;;;;;5128029;27;20206;-70
2022/10/14 04:22:17;;;;;;;14.47;10.70;;;11.20;99.90;;;;;;5127965;27;20213;-70
2022/10/14 04:24:44;;;;;;;11.90;10.70;;;11.20;99.90;;;;;;5128056;27;20208;-70
2022/10/14 04:27:11;;;;;;;11.53;10.33;;;11.20;99.90;;;;;;5127937;27;20210;-70
2022/10/14 04:29:38;;;;;;;11.97;9.87;;;11.20;99.90;;;;;;5127734;27;20614;-70
2022/10/14 04:32:05;;;;;;;12.80;10.43;;;11.20;99.90;;;;;;5127567;27;20216;-70
2022/10/14 04:34:33;;;;;;;11.17;10.07;;;11.30;99.90;;;;;;5130550;27;20584;-70
2022/10/14 04:37:00;;;;;;;11.73;10.57;;;11.30;99.90;;;;;;5131049;27;20563;-71
2022/10/14 04:39:26;;;;;;;13.43;10.20;;;11.30;99.90;;;;;;5131040;27;20202;-70
2022/10/14 04:41:53;;;;;;;12.23;10.70;;;11.30;99.90;;;;;;5131116;27;20205;-70
2022/10/14 04:44:20;;;;;;;15.03;10.37;;;11.30;99.90;;;;;;5130941;27;20209;-70
2022/10/14 04:46:47;;;;;;;11.70;10.37;;;11.20;99.90;;;;;;5131289;27;20209;-70
2022/10/14 04:49:15;;;;;;;14.30;10.97;;;11.20;99.90;;;;;;5120992;27;20230;-70
2022/10/14 04:51:43;;;;;;;15.30;11.13;;;11.30;99.90;;;;;;5109792;28;20214;-70
2022/10/14 04:54:10;;;;;;;11.17;9.80;;;11.20;99.90;;;;;;5113786;27;20572;-70
2022/10/14 04:56:37;;;;;;;13.97;11.03;;;11.20;99.90;;;;;;5130782;27;20194;-70
2022/10/14 04:59:04;;;;;;;13.10;10.67;;;11.20;99.90;;;;;;5117315;27;20209;-70
2022/10/14 05:01:30;;;;;;;11.83;10.63;;;11.30;99.90;;;;;;5112189;27;20249;-70
2022/10/14 05:03:57;;;;;;;15.33;11.93;;;11.30;99.90;;;;;;5130828;27;20729;-70
2022/10/14 05:06:24;;;;;;;15.63;10.90;;;11.30;99.90;;;;;;5128595;27;20205;-70
2022/10/14 05:08:52;;;;;;;14.60;10.80;;;11.20;99.90;;;;;;5130474;27;20226;-71
2022/10/14 05:11:19;;;;;;;11.83;10.63;;;11.20;99.90;;;;;;5130450;27;20205;-70
2022/10/14 05:13:45;;;;;;;12.73;10.77;;;11.30;99.90;;;;;;5131131;27;20205;-70
2022/10/14 05:16:12;;;;;;;12.40;10.80;;;11.20;99.90;;;;;;5130900;27;20212;-70
2022/10/14 05:18:39;;;;;;;15.43;10.73;;;11.20;99.90;;;;;;5130803;27;20210;-70
2022/10/14 05:21:06;;;;;;;14.43;10.73;;;11.20;99.90;;;;;;5112725;27;20214;-70
2022/10/14 05:23:33;;;;;;;15.67;11.10;;;11.20;99.90;;;;;;5130710;27;20205;-70
2022/10/14 05:26:01;;;;;;;12.60;11.40;;;11.20;99.90;;;;;;5130365;27;20223;-70
2022/10/14 05:28:28;;;;;;;13.80;10.63;;;11.20;99.90;;;;;;5129936;27;20716;-70
2022/10/14 05:30:55;;;;;;;12.97;10.50;;;11.30;99.90;;;;;;5130688;27;20310;-70
2022/10/14 05:33:22;;;;;;;12.33;10.53;;;11.30;99.90;;;;;;5130297;27;20212;-70
2022/10/14 05:35:49;;;;;;;12.50;10.63;;;11.30;99.90;;;;;;5130563;27;20206;-70
2022/10/14 05:38:15;;;;;;;12.50;11.20;;;11.30;99.90;;;;;;5130468;27;20225;-70
2022/10/14 05:40:42;;;;;;;16.97;11.17;;;11.30;99.90;;;;;;5130013;27;20209;-70
2022/10/14 05:43:10;;;;;;;12.30;10.53;;;11.30;99.90;;;;;;5129974;27;20661;-70
2022/10/14 05:45:37;;;;;;;13.07;11.50;;;11.30;99.90;;;;;;5129989;27;20214;-70
2022/10/14 05:48:05;;;;;;;12.03;10.63;;;11.30;99.90;;;;;;5130227;27;20209;-70
2022/10/14 05:50:31;;;;;;;15.07;11.63;;;11.30;99.90;;;;;;5125793;27;20210;-70
2022/10/14 05:53:00;;;;;;;13.50;10.03;;;11.30;99.90;;;;;;5125837;27;20202;-70
2022/10/14 05:55:27;;;;;;;13.93;10.30;;;11.30;99.90;;;;;;5114764;27;20221;-70
2022/10/14 05:57:55;;;;;;;11.20;10.20;;;11.40;99.90;;;;;;5109856;27;20217;-70
2022/10/14 06:00:24;;;;;;;14.10;10.47;;;11.30;99.90;;;;;;5129717;27;20233;-70
2022/10/14 06:02:50;;;;;;;13.20;10.80;;;11.30;99.90;;;;;;5129599;27;20579;-70
2022/10/14 06:05:17;;;;;;;11.77;10.13;;;11.30;99.90;;;;;;5129590;27;20216;-70
2022/10/14 06:07:44;;;;;;;13.53;10.50;;;11.40;99.90;;;;;;5129646;27;20206;-70
2022/10/14 06:10:11;;;;;;;11.93;10.80;;;11.40;99.90;;;;;;5128983;27;20703;-70
2022/10/14 06:12:38;;;;;;;13.50;11.07;;;11.40;99.90;;;;;;5129464;27;20715;-70
2022/10/14 06:15:05;;;;;;;11.50;10.20;;;11.30;99.90;;;;;;5129198;27;20209;-70
2022/10/14 06:17:34;;;;;;;16.17;10.23;;;11.40;99.90;;;;;;5129283;27;20208;-70
2022/10/14 06:20:01;;;;;;;13.30;10.97;;;11.30;99.90;;;;;;5129506;27;20213;-70
2022/10/14 06:22:28;;;;;;;16.43;10.97;;;11.40;99.90;;;;;;5129175;27;20209;-70
2022/10/14 06:24:55;;;;;;;11.43;10.23;;;11.40;99.90;;;;;;5129063;27;20280;-70
2022/10/14 06:27:22;;;;;;;14.23;10.70;;;11.40;99.90;;;;;;5128871;27;20205;-70
2022/10/14 06:29:48;;;;;;;13.03;10.57;;;11.40;99.90;;;;;;5128914;27;20237;-70
2022/10/14 06:32:15;;;;;;;12.90;10.53;;;11.40;99.90;;;;;;5128995;27;20213;-70
2022/10/14 06:34:43;;;;;;;14.90;11.17;;;11.40;99.90;;;;;;5129084;27;20201;-71
2022/10/14 06:37:10;;;;;;;16.43;10.70;;;11.40;99.90;;;;;;5128876;27;20198;-71
2022/10/14 06:39:37;;;;;;;12.57;11.27;;;11.40;99.90;;;;;;5128822;27;20660;-71
2022/10/14 06:42:04;;;;;;;11.40;9.90;;;11.50;99.90;;;;;;5128532;27;20201;-70
2022/10/14 06:44:30;;;;;;;11.63;10.30;;;11.50;99.90;;;;;;5129016;27;20210;-70
2022/10/14 06:46:57;;;;;;;14.10;10.90;;;11.50;99.90;;;;;;5122822;27;20214;-70
2022/10/14 06:49:24;;;;;;;12.33;10.47;;;11.60;99.90;;;;;;5113631;27;20618;-70
2022/10/14 06:51:52;;;;;;;13.37;11.00;;;11.60;99.90;;;;;;5119898;27;20214;-70
2022/10/14 06:54:19;;;;;;;11.47;10.27;;;11.60;99.90;;;;;;5128518;27;20201;-70
2022/10/14 06:56:45;;;;;;;14.57;10.77;;;11.60;99.90;;;;;;5127784;27;20209;-70
2022/10/14 06:59:12;;;;;;;11.73;10.50;;;11.60;99.90;;;;;;5128424;27;20743;-70
2022/10/14 07:01:39;;;;;;;12.43;11.13;;;11.60;99.90;;;;;;5128268;27;20244;-70
2022/10/14 07:04:06;;;;;;;13.37;11.80;;;11.70;99.90;;;;;;5128819;27;20669;-71
2022/10/14 07:06:33;;;;;;;13.13;10.40;;;11.70;99.90;;;;;;5128791;27;20236;-70
2022/10/14 07:09:01;;;;;;;14.53;11.23;;;11.70;99.90;;;;;;5128623;27;20221;-71
2022/10/14 07:11:27;;;;;;;14.80;11.40;;;11.70;99.90;;;;;;5128458;27;20532;-70
2022/10/14 07:13:55;;;;;;;12.60;11.17;;;11.70;99.90;;;;;;5128591;27;20201;-70
2022/10/14 07:16:22;;;;;;;15.23;11.20;;;11.70;99.90;;;;;;5128507;27;20205;-70
2022/10/14 07:18:49;;;;;;;13.77;11.60;;;11.80;99.90;;;;;;5128450;27;20201;-70
2022/10/14 07:21:16;;;;;;;12.53;11.27;;;11.80;99.90;;;;;;5125564;27;20209;-70
2022/10/14 07:23:43;;;;;;;12.10;10.43;;;11.80;99.90;;;;;;5108388;28;20210;-70
2022/10/14 07:26:11;;;;;;;12.53;10.50;;;11.90;99.90;;;;;;5107578;28;20202;-70
2022/10/14 07:28:38;;;;;;;13.40;11.60;;;11.90;99.90;;;;;;5108219;28;20209;-70
2022/10/14 07:31:06;;;;;;;13.63;10.73;;;11.90;99.90;;;;;;5107431;28;20720;-70
2022/10/14 07:33:34;;;;;;;12.60;11.40;;;11.90;99.90;;;;;;5108012;28;20205;-70
2022/10/14 07:36:02;;;;;;;12.63;11.27;;;11.90;99.90;;;;;;5125838;28;20205;-70
2022/10/14 07:38:29;;;;;;;12.73;11.33;;;12.00;99.90;;;;;;5127946;27;20591;-70
2022/10/14 07:41:01;;;;;;;14.33;11.37;;;12.00;99.90;;;;;;5127653;27;20296;-70
2022/10/14 07:43:30;;;;;;;15.40;12.27;;;12.00;99.90;;;;;;5128287;27;20197;-70
2022/10/14 07:46:01;;;;;;;16.23;12.00;;;12.00;99.90;;;;;;5128099;27;20211;-70
2022/10/14 07:48:28;;;;;;;12.60;11.33;;;12.10;99.90;;;;;;5127667;27;20201;-70
2022/10/14 07:50:55;;;;;;;13.50;11.33;;;12.10;99.90;;;;;;5128133;27;20236;-70
2022/10/14 07:53:23;;;;;;;18.27;14.10;;;12.10;99.90;;;;;;5127991;27;20209;-71
2022/10/14 07:55:51;;;;;;;12.73;11.53;;;12.10;99.90;;;;;;5127942;27;20219;-70
2022/10/14 07:58:20;;;;;;;11.53;10.43;;;12.20;99.90;;;;;;5127974;27;20664;-71
2022/10/14 08:00:48;;;;;;;13.23;10.77;;;12.20;99.90;;;;;;5127970;27;20234;-70
2022/10/14 08:03:15;;;;;;;12.37;11.00;;;12.30;99.90;;;;;;5127923;27;20266;-70
2022/10/14 08:05:42;;;;;;;13.63;11.23;;;12.30;99.90;;;;;;5127816;27;20216;-70
2022/10/14 08:08:10;;;;;;;12.93;10.90;;;12.50;99.90;;;;;;5130403;27;20209;-70
2022/10/14 08:10:37;;;;;;;13.27;11.20;;;12.50;99.90;;;;;;5131791;27;20236;-70
2022/10/14 08:13:05;;;;;;;13.67;11.27;;;12.60;99.90;;;;;;5131681;27;20669;-70
2022/10/14 08:15:36;;;;;;;12.47;11.17;;;12.70;99.90;;;;;;5132309;27;20214;-70
2022/10/14 08:18:05;;;;;;;12.70;11.37;;;12.70;99.90;;;;;;5131702;27;20293;-70
2022/10/14 08:20:32;;;;;;;15.97;11.07;;;12.80;99.90;;;;;;5131750;27;20209;-70
2022/10/14 08:22:59;;;;;;;17.00;11.57;;;12.80;99.90;;;;;;5131636;27;20240;-71
2022/10/14 08:25:26;;;;;;;13.60;10.87;;;12.90;99.90;;;;;;5130943;27;20209;-71
2022/10/14 08:27:56;;;;;;;13.27;10.63;;;12.90;99.90;;;;;;5131456;27;20222;-71
2022/10/14 08:30:23;;;;;;;12.67;11.37;;;13.00;99.90;;;;;;5131507;27;20233;-70
2022/10/14 08:32:50;;;;;;;13.77;11.03;;;13.10;99.90;;;;;;5131335;27;20594;-70
2022/10/14 08:35:18;;;;;;;12.50;11.20;;;13.10;99.90;;;;;;5130904;27;20209;-70
2022/10/14 08:37:44;;;;;;;13.70;11.17;;;13.10;99.90;;;;;;5131391;27;20201;-71
2022/10/14 08:40:16;;;;;;;12.97;11.57;;;13.10;99.90;;;;;;5118700;27;20229;-71
2022/10/14 08:42:49;;;;;;;14.23;11.63;;;13.20;99.90;;;;;;5121201;27;20194;-71
2022/10/14 08:45:23;;;;;;;14.80;10.47;;;13.20;99.90;;;;;;5110663;28;20217;-71
2022/10/14 08:47:53;;;;;;;12.63;11.33;;;13.30;99.90;;;;;;5113347;27;20213;-71
2022/10/14 08:50:28;;;;;;;12.47;10.80;;;13.30;99.90;;;;;;5129134;27;20225;-71
2022/10/14 08:53:00;;;;;;;14.23;11.27;;;13.40;99.90;;;;;;5131010;27;20634;-71
2022/10/14 08:55:33;;;;;;;13.33;11.63;;;13.40;99.90;;;;;;5130742;27;20224;-71
2022/10/14 08:58:05;;;;;;;12.13;10.90;;;13.50;99.90;;;;;;5131193;27;20242;-71
2022/10/14 09:00:34;;;;;;;13.27;11.57;;;13.50;99.90;;;;;;5130985;27;20229;-71
2022/10/14 09:03:05;;;;;;;12.83;11.53;;;13.60;99.90;;;;;;5130936;27;20572;-71
2022/10/14 09:05:33;;;;;;;13.87;11.60;;;13.60;99.90;;;;;;5117352;27;20194;-71
2022/10/14 09:08:01;;;;;;;16.33;11.67;;;13.60;99.90;;;;;;5110354;28;20210;-70
2022/10/14 09:10:32;;;;;;;16.20;11.80;;;13.70;99.90;;;;;;5109922;27;20237;-71
2022/10/14 09:13:09;;;;;;;17.27;12.13;;;13.80;99.90;;;;;;5110155;27;20195;-70
2022/10/14 09:15:41;;;;;;;13.50;11.00;;;13.90;99.90;;;;;;5110387;28;20194;-71
2022/10/14 09:18:24;;;;;;;15.60;11.97;;;14.00;99.90;;;;;;5109751;28;20205;-70
2022/10/14 09:20:53;;;;;;;13.53;10.83;;;14.10;99.90;;;;;;5110173;28;20201;-71
2022/10/14 09:23:21;;;;;;;15.97;11.23;;;14.20;99.90;;;;;;5129898;27;20235;-71
2022/10/14 09:25:59;;;;;;;16.27;11.60;;;14.30;99.90;;;;;;5130378;27;20284;-70
2022/10/14 09:28:35;;;;;;;13.27;11.63;;;14.30;99.90;;;;;;5130273;27;20212;-70
2022/10/14 09:31:02;;;;;;;15.90;12.10;;;14.30;99.90;;;;;;5130736;27;20232;-70
2022/10/14 09:33:29;;;;;;;16.50;11.47;;;14.30;99.90;;;;;;5130081;27;20786;-71
2022/10/14 09:35:57;;;;;;;18.47;11.87;;;14.40;99.90;;;;;;5130134;27;20239;-70
2022/10/14 09:38:25;;;;;;;13.37;10.90;;;14.50;99.90;;;;;;5129922;27;20803;-70
2022/10/14 09:40:55;;;;;;;18.47;12.37;;;14.60;99.90;;;;;;5111988;27;20236;-70
2022/10/14 09:43:23;;;;;;;14.03;11.50;;;14.70;99.90;;;;;;5114354;27;20197;-70
2022/10/14 09:45:58;;;;;;;12.40;10.87;;;14.70;99.90;;;;;;5130165;27;20212;-70
2022/10/14 09:48:32;;;;;;;13.13;9.77;;;14.80;99.90;;;;;;5129906;27;20189;-71
2022/10/14 09:51:02;;;;;;;12.70;10.30;;;14.90;99.90;;;;;;5130061;27;20229;-71
2022/10/14 09:53:31;;;;;;;13.43;11.00;;;15.00;99.90;;;;;;5129919;27;20847;-71
2022/10/14 09:56:01;;;;;;;12.57;10.23;;;15.00;99.90;;;;;;5129766;27;20292;-71
2022/10/14 09:58:32;;;;;;;13.77;11.17;;;15.10;99.90;;;;;;5130099;27;20209;-71
2022/10/14 10:01:01;;;;;;;14.30;10.73;;;15.10;99.90;;;;;;5129628;27;20233;-71
2022/10/14 10:03:31;;;;;;;16.40;10.97;;;15.10;99.90;;;;;;5129909;27;20201;-71
2022/10/14 10:06:08;;;;;;;12.23;11.03;;;15.10;99.90;;;;;;5129754;27;20197;-71
2022/10/14 10:08:36;;;;;;;13.13;10.80;;;15.20;99.90;;;;;;5129719;27;20197;-71
2022/10/14 10:11:05;;;;;;;16.77;11.50;;;15.30;99.90;;;;;;5129217;27;20233;-71
2022/10/14 10:13:39;;;;;;;12.40;10.73;;;15.20;99.90;;;;;;5129588;27;20202;-71
2022/10/14 10:16:16;;;;;;;13.33;10.80;;;15.30;99.90;;;;;;5129448;27;20198;-71
2022/10/14 10:18:43;;;;;;;13.20;10.87;;;15.30;99.90;;;;;;5129533;27;20192;-71
2022/10/14 10:21:17;;;;;;;14.63;11.10;;;15.40;99.90;;;;;;5127787;27;20210;-71
2022/10/14 10:23:52;;;;;;;14.90;11.53;;;15.50;99.90;;;;;;5108950;28;20186;-71
2022/10/14 10:26:24;;;;;;;15.93;11.90;;;15.50;99.90;;;;;;5108439;28;20608;-71
2022/10/14 10:28:52;;;;;;;12.80;11.20;;;15.60;99.90;;;;;;5108693;28;20198;-71
2022/10/14 10:31:56;;;;;;;16.20;11.23;;;15.70;99.90;;;;;;5107522;28;20320;-71
2022/10/14 10:34:56;;;;;;;12.67;11.37;;;15.80;99.90;;;;;;5113207;27;20201;-71
2022/10/14 10:37:32;;;;;;;13.80;10.90;;;15.80;99.90;;;;;;5108672;27;20210;-69
2022/10/14 10:40:18;;;;;;;13.60;11.20;;;15.70;99.90;;;;;;5118609;27;20265;-71
2022/10/14 10:42:57;;;;;;;14.43;11.70;;;15.60;99.90;;;;;;5129158;27;20198;-71
2022/10/14 10:45:35;;;;;;;15.50;13.17;;;15.50;99.90;;;;;;5128589;27;20705;-71
2022/10/14 10:48:08;;;;;;;18.43;13.90;;;15.50;99.90;;;;;;5129069;27;20287;-71
2022/10/14 10:50:45;;;;;;;15.23;13.37;;;15.40;99.90;;;;;;5128651;27;20240;-71
2022/10/14 10:53:28;;;;;;;15.37;12.27;;;15.40;99.90;;;;;;5128864;27;20204;-71
2022/10/14 10:56:05;;;;;;;13.87;12.37;;;15.40;99.90;;;;;;5128475;27;20190;-71
2022/10/14 10:58:43;;;;;;;14.93;12.10;;;15.40;99.90;;;;;;5128766;27;20193;-71
2022/10/14 11:01:23;;;;;;;16.80;12.27;;;15.40;99.90;;;;;;5128211;27;20245;-71
2022/10/14 11:04:03;;;;;;;13.53;12.13;;;15.40;99.90;;;;;;5128788;27;20597;-71
2022/10/14 11:12:23;;;;;;;15.40;12.73;;;15.60;99.90;;;;;;5107405;28;20267;-70
2022/10/14 11:15:15;;;;;;;15.30;12.20;;;15.80;99.90;;;;;;5108245;28;20215;-71
2022/10/14 11:17:48;;;;;;;17.53;12.33;;;15.90;99.90;;;;;;5108273;28;20197;-71
2022/10/14 11:20:25;;;;;;;12.97;11.53;;;16.10;99.90;;;;;;5107415;28;20210;-70
2022/10/14 11:23:20;;;;;;;13.47;11.97;;;16.30;99.90;;;;;;5123563;28;20570;-71
2022/10/14 11:25:55;;;;;;;15.50;11.57;;;16.30;99.90;;;;;;5128399;27;20197;-71
2022/10/14 11:28:27;;;;;;;13.37;11.10;;;16.40;99.90;;;;;;5128320;27;20200;-71
2022/10/14 11:31:02;;;;;;;15.33;11.23;;;16.40;99.90;;;;;;5127836;27;20236;-71
2022/10/14 11:33:41;;;;;;;14.70;11.37;;;16.40;99.90;;;;;;5127890;27;20209;-71
2022/10/14 11:36:23;;;;;;;12.80;11.10;;;16.50;99.90;;;;;;5109407;27;20201;-71
2022/10/14 11:39:08;;;;;;;14.97;11.17;;;16.50;99.90;;;;;;5108128;28;20190;-71
2022/10/14 11:41:51;;;;;;;14.90;10.77;;;16.60;99.90;;;;;;5107795;28;20647;-71
2022/10/14 11:44:26;;;;;;;12.20;9.90;;;16.60;99.90;;;;;;5111913;27;20194;-71
2022/10/14 11:46:57;;;;;;;11.97;10.33;;;16.60;99.90;;;;;;5112077;28;20194;-71
2022/10/14 11:49:27;;;;;;;13.60;10.83;;;16.80;99.90;;;;;;5111959;28;20601;-70
2022/10/14 11:52:01;;;;;;;12.33;9.67;;;16.90;99.90;;;;;;5119743;27;20224;-71
2022/10/14 11:54:32;;;;;;;12.10;9.70;;;16.90;99.90;;;;;;5132117;27;20194;-70
2022/10/14 11:57:04;;;;;;;12.37;9.83;;;17.10;99.90;;;;;;5132167;27;20192;-71
2022/10/14 11:59:40;;;;;;;11.80;10.30;;;17.20;99.90;;;;;;5132354;27;20387;-71
2022/10/14 12:02:20;;;;;;;12.47;10.77;;;17.20;99.90;;;;;;5131727;27;20651;-71
2022/10/14 12:04:53;;;;;;;10.73;9.50;;;17.10;99.90;;;;;;5132219;27;20193;-71
2022/10/14 12:07:26;;;;;;;11.93;10.67;;;17.00;99.90;;;;;;5131705;27;20275;-71
2022/10/14 12:09:59;;;;;;;12.77;10.07;;;16.80;99.90;;;;;;5131884;27;20196;-71
2022/10/14 12:12:30;;;;;;;13.60;9.73;;;16.70;99.90;;;;;;5131394;27;20197;-71
2022/10/14 12:15:00;;;;;;;10.70;9.60;;;16.60;99.90;;;;;;5132089;27;20189;-70
2022/10/14 12:17:33;;;;;;;10.80;9.70;;;16.50;99.90;;;;;;5131991;27;20202;-71
2022/10/14 12:20:07;;;;;;;12.27;10.17;;;16.40;99.90;;;;;;5131798;27;20189;-71
2022/10/14 12:22:35;;;;;;;14.33;10.20;;;16.30;99.90;;;;;;5131696;27;20213;-70
2022/10/14 12:25:08;;;;;;;11.43;10.23;;;16.20;99.90;;;;;;5131560;27;20205;-71
2022/10/14 12:27:37;;;;;;;13.93;9.90;;;16.10;99.90;;;;;;5131434;27;20625;-70
2022/10/14 12:30:25;;;;;;;11.43;10.33;;;16.10;99.90;;;;;;5131673;27;20233;-70
2022/10/14 12:33:01;;;;;;;11.33;9.67;;;16.00;99.90;;;;;;5131189;27;20209;-70
2022/10/14 12:35:57;;;;;;;12.50;10.00;;;16.00;99.90;;;;;;5130808;27;20872;-71
2022/10/14 12:38:24;;;;;;;13.37;10.30;;;16.00;99.90;;;;;;5131265;27;20240;-71
2022/10/14 12:40:51;;;;;;;12.00;9.93;;;16.00;99.90;;;;;;5131263;27;20213;-70
2022/10/14 12:43:23;;;;;;;11.67;9.70;;;16.10;99.90;;;;;;5131214;27;20202;-71
2022/10/14 12:46:12;;;;;;;12.47;10.40;;;16.40;99.90;;;;;;5131414;27;20212;-71
2022/10/14 12:48:49;;;;;;;10.90;9.80;;;16.80;99.90;;;;;;5122756;27;20205;-70
2022/10/14 12:51:18;;;;;;;10.03;9.13;;;17.00;99.90;;;;;;5128679;27;20216;-71